createdAt,value
2018-11-11T00:02:21.667Z,16.23
2018-11-11T00:04:53.201Z,17.20
2018-11-11T00:07:23.358Z,17.47
2018-11-11T00:09:53.940Z,17.37
2018-11-11T00:12:25.203Z,16.17
2018-11-11T00:14:55.071Z,18.03
2018-11-11T00:17:28.716Z,17.00
2018-11-11T00:20:11.070Z,16.47
2018-11-11T00:22:47.631Z,16.40
2018-11-11T00:25:17.243Z,16.00
2018-11-11T00:27:47.532Z,17.20
2018-11-11T00:30:19.884Z,16.03
2018-11-11T00:32:57.942Z,16.87
2018-11-11T00:35:37.688Z,16.80
2018-11-11T00:38:08.710Z,16.20
2018-11-11T00:40:46.465Z,15.90
2018-11-11T00:43:23.980Z,16.23
2018-11-11T00:45:54.826Z,16.23
2018-11-11T00:48:33.734Z,17.13
2018-11-11T00:51:04.669Z,17.20
2018-11-11T00:53:41.944Z,15.43
2018-11-11T00:56:20.307Z,16.37
2018-11-11T00:58:52.116Z,15.60
2018-11-11T01:01:21.827Z,17.70
2018-11-11T01:03:53.153Z,17.40
2018-11-11T01:06:25.099Z,17.17
2018-11-11T01:08:55.277Z,17.30
2018-11-11T01:11:25.409Z,16.47
2018-11-11T01:13:56.292Z,16.70
2018-11-11T01:16:30.201Z,17.27
2018-11-11T01:19:04.472Z,18.47
2018-11-11T01:21:36.134Z,17.27
2018-11-11T01:24:05.929Z,16.83
2018-11-11T01:26:44.174Z,17.17
2018-11-11T01:29:17.557Z,17.50
2018-11-11T01:31:50.982Z,17.80
2018-11-11T01:34:21.964Z,17.87
2018-11-11T01:36:56.238Z,17.57
2018-11-11T01:39:26.586Z,17.60
2018-11-11T01:41:57.297Z,17.63
2018-11-11T01:44:27.608Z,17.43
2018-11-11T01:46:59.106Z,16.73
2018-11-11T01:49:31.290Z,16.77
2018-11-11T01:52:02.222Z,17.60
2018-11-11T01:54:32.534Z,17.67
2018-11-11T01:57:03.401Z,17.10
2018-11-11T01:59:36.212Z,17.73
2018-11-11T02:02:07.361Z,18.47
2018-11-11T02:04:39.529Z,18.33
2018-11-11T02:07:15.067Z,17.13
2018-11-11T02:09:58.304Z,18.60
2018-11-11T02:12:28.650Z,19.60
2018-11-11T02:14:58.117Z,18.43
2018-11-11T02:17:27.885Z,17.90
2018-11-11T02:19:59.365Z,19.33
2018-11-11T02:22:29.793Z,22.00
2018-11-11T02:25:03.029Z,18.90
2018-11-11T02:27:36.441Z,18.83
2018-11-11T02:30:09.556Z,19.80
2018-11-11T02:32:40.346Z,18.77
2018-11-11T02:35:10.788Z,20.53
2018-11-11T02:37:42.267Z,19.80
2018-11-11T02:40:15.157Z,20.00
2018-11-11T02:42:45.645Z,19.47
2018-11-11T02:45:17.720Z,19.07
2018-11-11T02:47:48.147Z,19.33
2018-11-11T02:50:19.678Z,19.50
2018-11-11T02:52:49.529Z,19.70
2018-11-11T02:55:22.140Z,19.73
2018-11-11T02:57:53.522Z,20.37
2018-11-11T03:00:24.352Z,19.30
2018-11-11T03:02:53.963Z,18.87
2018-11-11T03:05:25.392Z,20.20
2018-11-11T03:07:57.305Z,20.17
2018-11-11T03:10:28.569Z,19.80
2018-11-11T03:13:00.036Z,20.27
2018-11-11T03:15:32.337Z,20.30
2018-11-11T03:18:03.731Z,18.30
2018-11-11T03:20:35.360Z,20.57
2018-11-11T03:23:06.846Z,19.33
2018-11-11T03:25:37.271Z,19.17
2018-11-11T03:28:11.652Z,19.60
2018-11-11T03:30:48.775Z,20.53
2018-11-11T03:33:25.433Z,20.63
2018-11-11T03:35:56.138Z,19.80
2018-11-11T03:38:30.155Z,20.47
2018-11-11T03:41:04.123Z,20.23
2018-11-11T03:43:35.205Z,19.77
2018-11-11T03:46:04.824Z,21.53
2018-11-11T03:48:37.947Z,20.50
2018-11-11T03:51:09.007Z,20.30
2018-11-11T03:53:40.044Z,20.27
2018-11-11T03:56:12.215Z,20.73
2018-11-11T03:58:41.890Z,20.63
2018-11-11T04:01:12.549Z,19.43
2018-11-11T04:03:45.047Z,20.40
2018-11-11T04:06:14.697Z,20.07
2018-11-11T04:08:46.016Z,21.13
2018-11-11T04:11:18.014Z,21.77
2018-11-11T04:13:48.801Z,20.23
2018-11-11T04:16:19.199Z,20.17
2018-11-11T04:18:49.021Z,21.07
2018-11-11T04:21:21.155Z,21.33
2018-11-11T04:23:54.557Z,20.40
2018-11-11T04:26:25.149Z,20.50
2018-11-11T04:28:57.548Z,19.87
2018-11-11T04:31:29.903Z,19.93
2018-11-11T04:34:02.252Z,20.07
2018-11-11T04:36:31.774Z,20.83
2018-11-11T04:39:03.534Z,19.63
2018-11-11T04:41:34.053Z,19.57
2018-11-11T04:44:06.368Z,19.87
2018-11-11T04:46:36.723Z,20.93
2018-11-11T04:49:09.582Z,20.13
2018-11-11T04:51:42.002Z,21.27
2018-11-11T04:54:13.951Z,20.30
2018-11-11T04:56:43.660Z,20.13
2018-11-11T04:59:14.321Z,19.50
2018-11-11T05:01:45.003Z,21.10
2018-11-11T05:04:30.527Z,20.97
2018-11-11T05:07:01.505Z,19.93
2018-11-11T05:09:34.799Z,20.57
2018-11-11T05:12:05.481Z,20.40
2018-11-11T05:14:35.843Z,21.03
2018-11-11T05:17:07.212Z,20.47
2018-11-11T05:19:37.444Z,18.83
2018-11-11T05:22:08.847Z,19.93
2018-11-11T05:24:40.283Z,19.90
2018-11-11T05:27:11.400Z,20.67
2018-11-11T05:29:45.525Z,19.73
2018-11-11T05:32:16.157Z,20.33
2018-11-11T05:34:48.144Z,20.30
2018-11-11T05:37:19.699Z,20.47
2018-11-11T05:39:49.479Z,19.97
2018-11-11T05:42:22.839Z,20.30
2018-11-11T05:44:54.365Z,21.47
2018-11-11T05:47:25.592Z,20.77
2018-11-11T05:49:56.271Z,19.80
2018-11-11T05:52:31.001Z,20.97
2018-11-11T05:55:02.053Z,20.23
2018-11-11T05:57:31.817Z,20.93
2018-11-11T06:00:09.088Z,21.43
2018-11-11T06:02:46.768Z,22.20
2018-11-11T06:05:21.664Z,20.43
2018-11-11T06:07:53.452Z,21.83
2018-11-11T06:10:26.852Z,20.93
2018-11-11T06:12:57.916Z,21.97
2018-11-11T06:15:30.838Z,21.17
2018-11-11T06:18:02.983Z,21.97
2018-11-11T06:20:44.865Z,21.53
2018-11-11T06:23:18.758Z,22.50
2018-11-11T06:25:49.147Z,22.93
2018-11-11T06:28:19.746Z,22.57
2018-11-11T06:30:49.380Z,22.33
2018-11-11T06:33:19.418Z,25.73
2018-11-11T06:35:49.752Z,21.77
2018-11-11T06:38:26.139Z,22.00
2018-11-11T06:40:55.697Z,20.60
2018-11-11T06:43:25.399Z,22.73
2018-11-11T06:45:57.471Z,22.90
2018-11-11T06:48:30.662Z,21.90
2018-11-11T06:51:01.706Z,22.97
2018-11-11T06:54:39.816Z,23.30
2018-11-11T06:57:09.445Z,22.43
2018-11-11T06:59:40.278Z,22.37
2018-11-11T07:02:20.612Z,22.83
2018-11-11T07:05:05.548Z,23.57
2018-11-11T07:07:42.307Z,23.10
2018-11-11T07:10:12.614Z,24.33
2018-11-11T07:12:43.027Z,23.17
2018-11-11T07:15:31.697Z,23.47
2018-11-11T07:18:16.361Z,24.33
2018-11-11T07:20:49.909Z,23.20
2018-11-11T07:23:19.611Z,23.57
2018-11-11T07:26:02.681Z,23.43
2018-11-11T07:28:37.045Z,23.27
2018-11-11T07:31:08.086Z,24.23
2018-11-11T07:33:38.991Z,23.93
2018-11-11T07:36:12.744Z,25.03
2018-11-11T07:38:46.544Z,22.07
2018-11-11T07:41:24.447Z,23.27
2018-11-11T07:43:59.012Z,23.50
2018-11-11T07:46:34.973Z,22.77
2018-11-11T07:52:09.130Z,23.77
2018-11-11T07:59:55.088Z,22.47
2018-11-11T08:02:26.803Z,22.23
2018-11-11T08:05:01.710Z,20.13
2018-11-11T08:07:34.550Z,22.37
2018-11-11T08:10:15.074Z,21.90
2018-11-11T08:12:45.606Z,20.20
2018-11-11T08:15:17.383Z,21.80
2018-11-11T08:18:03.854Z,21.50
2018-11-11T08:20:34.716Z,22.47
2018-11-11T08:23:08.503Z,20.03
2018-11-11T08:25:43.017Z,20.60
2018-11-11T08:28:14.286Z,21.20
2018-11-11T08:30:44.009Z,20.37
2018-11-11T08:33:28.877Z,19.20
2018-11-11T08:36:17.499Z,19.63
2018-11-11T08:38:49.693Z,20.10
2018-11-11T08:41:30.492Z,19.97
2018-11-11T08:44:12.745Z,19.03
2018-11-11T08:46:50.565Z,18.97
2018-11-11T08:52:25.087Z,18.63
2018-11-11T08:55:06.549Z,17.63
2018-11-11T08:57:59.393Z,18.40
2018-11-11T09:00:33.411Z,16.80
2018-11-11T09:03:07.891Z,18.07
2018-11-11T09:05:46.464Z,17.67
2018-11-11T09:16:07.675Z,17.80
2018-11-11T09:18:40.345Z,17.10
2018-11-11T09:21:20.926Z,18.60
2018-11-11T09:23:57.355Z,17.00
2018-11-11T09:26:30.827Z,17.60
2018-11-11T09:31:47.249Z,15.70
2018-11-11T09:34:30.413Z,16.73
2018-11-11T09:37:17.887Z,17.03
2018-11-11T09:39:50.983Z,16.60
2018-11-11T09:42:39.739Z,18.60
2018-11-11T09:45:20.145Z,16.40
2018-11-11T09:47:52.505Z,16.50
2018-11-11T09:53:55.065Z,16.43
2018-11-11T09:56:31.828Z,15.87
2018-11-11T09:59:14.866Z,16.30
2018-11-11T10:01:46.705Z,16.73
2018-11-11T10:04:22.081Z,16.13
2018-11-11T10:06:59.882Z,15.80
2018-11-11T10:09:40.490Z,15.93
2018-11-11T10:19:58.304Z,16.33
2018-11-11T10:22:39.213Z,15.67
2018-11-11T10:26:17.466Z,15.63
2018-11-11T10:29:06.222Z,16.13
2018-11-11T10:31:47.498Z,16.30
2018-11-11T10:34:34.077Z,16.83
2018-11-11T10:37:22.194Z,16.87
2018-11-11T10:40:03.559Z,16.77
2018-11-11T10:42:50.311Z,16.47
2018-11-11T10:45:51.534Z,15.77
2018-11-11T10:48:37.941Z,15.57
2018-11-11T10:51:10.265Z,16.00
2018-11-11T10:53:45.361Z,15.33
2018-11-11T10:56:20.461Z,17.47
2018-11-11T10:58:51.044Z,17.37
2018-11-11T11:01:35.851Z,17.30
2018-11-11T11:04:05.888Z,16.57
2018-11-11T11:06:44.024Z,17.63
2018-11-11T11:09:24.393Z,17.43
2018-11-11T11:11:55.448Z,16.57
2018-11-11T11:17:13.280Z,15.13
2018-11-11T11:20:01.928Z,15.63
2018-11-11T11:22:52.166Z,16.20
2018-11-11T11:25:36.580Z,16.30
2018-11-11T11:28:20.497Z,16.03
2018-11-11T11:30:50.936Z,16.47
2018-11-11T11:33:26.136Z,15.50
2018-11-11T11:36:06.897Z,14.33
2018-11-11T11:38:42.047Z,15.17
2018-11-11T11:41:26.678Z,14.90
2018-11-11T11:44:04.779Z,13.47
2018-11-11T11:49:19.135Z,14.00
2018-11-11T11:51:49.182Z,13.20
2018-11-11T11:54:20.148Z,13.00
2018-11-11T11:56:50.672Z,11.93
2018-11-11T11:59:30.351Z,12.13
2018-11-11T12:04:49.824Z,11.93
2018-11-11T12:07:22.324Z,10.73
2018-11-11T12:09:52.319Z,11.00
2018-11-11T12:12:30.013Z,10.87
2018-11-11T12:15:00.676Z,10.60
2018-11-11T12:17:31.693Z,10.33
2018-11-11T12:20:02.089Z,9.97
2018-11-11T12:22:35.107Z,8.53
2018-11-11T12:25:17.420Z,9.33
2018-11-11T12:27:52.877Z,8.37
2018-11-11T12:30:30.504Z,8.07
2018-11-11T12:33:08.275Z,7.50
2018-11-11T12:35:45.284Z,8.23
2018-11-11T12:38:16.124Z,6.87
2018-11-11T12:40:48.086Z,7.20
2018-11-11T12:43:28.508Z,7.07
2018-11-11T12:46:12.660Z,7.67
2018-11-11T12:48:47.278Z,7.73
2018-11-11T12:51:25.892Z,8.00
2018-11-11T12:53:57.044Z,6.83
2018-11-11T12:56:32.757Z,6.27
2018-11-11T12:59:04.549Z,6.43
2018-11-11T13:01:36.499Z,7.03
2018-11-11T13:04:08.080Z,7.00
2018-11-11T13:06:39.530Z,6.40
2018-11-11T13:09:14.584Z,5.93
2018-11-11T13:11:45.046Z,6.00
2018-11-11T13:14:14.695Z,5.70
2018-11-11T13:16:47.216Z,6.20
2018-11-11T13:19:17.818Z,5.53
2018-11-11T13:21:50.840Z,6.13
2018-11-11T13:24:21.871Z,6.00
2018-11-11T13:26:51.763Z,6.27
2018-11-11T13:29:22.366Z,5.90
2018-11-11T13:31:53.095Z,5.90
2018-11-11T13:34:24.517Z,6.30
2018-11-11T13:36:59.025Z,6.27
2018-11-11T13:39:29.374Z,6.30
2018-11-11T13:42:00.266Z,6.03
2018-11-11T13:44:32.021Z,5.63
2018-11-11T13:47:02.820Z,6.17
2018-11-11T13:49:34.533Z,6.60
2018-11-11T13:52:07.370Z,5.93
2018-11-11T13:54:39.361Z,5.90
2018-11-11T13:57:11.842Z,5.63
2018-11-11T13:59:41.844Z,5.40
2018-11-11T14:02:13.733Z,5.47
2018-11-11T14:04:43.404Z,5.27
2018-11-11T14:09:58.949Z,4.70
2018-11-11T14:12:32.311Z,4.13
2018-11-11T14:15:03.585Z,4.40
2018-11-11T14:17:34.400Z,4.73
2018-11-11T14:20:09.187Z,4.10
2018-11-11T14:22:42.465Z,4.83
2018-11-11T14:25:22.205Z,21.07
2018-11-11T14:27:56.080Z,14.00
2018-11-11T14:30:27.991Z,9.20
2018-11-11T14:32:59.295Z,12.03
2018-11-11T14:35:30.777Z,5.90
2018-11-11T14:38:01.532Z,5.07
2018-11-11T14:40:33.563Z,10.27
2018-11-11T14:43:08.274Z,12.07
2018-11-11T14:45:38.122Z,9.93
2018-11-11T14:48:08.455Z,6.90
2018-11-11T14:50:41.474Z,7.77
2018-11-11T14:53:12.026Z,6.57
2018-11-11T14:55:41.889Z,6.40
2018-11-11T14:58:13.501Z,4.77
2018-11-11T15:00:44.451Z,14.13
2018-11-11T15:03:17.982Z,9.40
2018-11-11T15:05:47.733Z,5.67
2018-11-11T15:08:18.031Z,7.70
2018-11-11T15:11:03.124Z,13.20
2018-11-11T15:13:41.368Z,10.97
2018-11-11T15:16:12.340Z,5.77
2018-11-11T15:18:43.039Z,6.33
2018-11-11T15:21:14.943Z,6.40
2018-11-11T15:23:45.186Z,6.33
2018-11-11T15:26:15.134Z,8.23
2018-11-11T15:28:48.027Z,9.13
2018-11-11T15:31:19.178Z,9.77
2018-11-11T15:33:48.933Z,7.60
2018-11-11T15:36:19.751Z,4.30
2018-11-11T15:38:50.295Z,3.80
2018-11-11T15:41:23.577Z,4.83
2018-11-11T15:43:56.195Z,17.07
2018-11-11T15:46:26.816Z,7.83
2018-11-11T15:48:56.850Z,5.57
2018-11-11T15:51:26.533Z,4.80
2018-11-11T15:53:56.339Z,5.63
2018-11-11T15:56:31.064Z,5.47
2018-11-11T15:59:09.406Z,14.10
2018-11-11T16:01:41.424Z,26.83
2018-11-11T16:04:11.249Z,15.57
2018-11-11T16:06:46.687Z,9.73
2018-11-11T16:09:18.890Z,9.40
2018-11-11T16:11:53.171Z,6.10
2018-11-11T16:14:30.568Z,5.50
2018-11-11T16:17:12.491Z,5.83
2018-11-11T16:19:43.083Z,6.80
2018-11-11T16:22:14.603Z,6.83
2018-11-11T16:24:44.519Z,7.03
2018-11-11T16:27:18.005Z,6.43
2018-11-11T16:29:47.759Z,6.37
2018-11-11T16:32:19.260Z,6.53
2018-11-11T16:34:49.711Z,6.20
2018-11-11T16:37:22.553Z,6.63
2018-11-11T16:39:54.585Z,6.43
2018-11-11T16:42:25.337Z,7.80
2018-11-11T16:44:57.692Z,6.40
2018-11-11T16:47:28.839Z,6.00
2018-11-11T16:50:01.363Z,6.20
2018-11-11T16:52:33.639Z,6.27
2018-11-11T16:55:04.508Z,6.20
2018-11-11T16:57:35.163Z,6.10
2018-11-11T17:00:07.685Z,7.30
2018-11-11T17:02:37.642Z,7.87
2018-11-11T17:05:29.582Z,7.27
2018-11-11T17:08:09.383Z,7.77
2018-11-11T17:10:42.228Z,9.63
2018-11-11T17:13:14.770Z,7.43
2018-11-11T17:15:55.674Z,7.80
2018-11-11T17:18:28.829Z,7.17
2018-11-11T17:20:58.441Z,8.07
2018-11-11T17:23:29.401Z,8.30
2018-11-11T17:26:02.226Z,8.37
2018-11-11T17:28:33.028Z,8.03
2018-11-11T17:31:04.410Z,7.70
2018-11-11T17:33:34.530Z,8.50
2018-11-11T17:36:06.399Z,8.83
2018-11-11T17:38:41.143Z,8.97
2018-11-11T17:41:36.608Z,9.53
2018-11-11T17:44:13.364Z,9.13
2018-11-11T17:46:43.327Z,9.07
2018-11-11T17:49:20.926Z,9.90
2018-11-11T17:51:52.357Z,9.17
2018-11-11T17:54:22.160Z,9.53
2018-11-11T18:02:21.396Z,9.53
2018-11-11T18:04:56.584Z,9.53
2018-11-11T18:07:26.553Z,8.47
2018-11-11T18:10:01.290Z,9.57
2018-11-11T18:12:34.575Z,10.20
2018-11-11T18:15:18.984Z,10.17
2018-11-11T18:18:03.897Z,8.60
2018-11-11T18:20:42.764Z,9.20
2018-11-11T18:23:21.394Z,9.70
2018-11-11T18:29:07.014Z,7.90
2018-11-11T18:31:44.477Z,8.07
2018-11-11T18:34:26.466Z,8.07
2018-11-11T18:46:42.382Z,11.37
2018-11-11T18:49:22.730Z,13.93
2018-11-11T18:52:02.706Z,14.23
2018-11-11T18:54:39.680Z,13.53
2018-11-11T18:57:39.566Z,12.53
2018-11-11T19:00:45.265Z,9.67
2018-11-11T19:03:28.053Z,13.17
2018-11-11T19:09:16.231Z,11.10
2018-11-11T19:11:50.694Z,9.50
2018-11-11T19:14:22.514Z,15.20
2018-11-11T19:16:52.899Z,11.60
2018-11-11T19:19:23.213Z,11.40
2018-11-11T19:21:54.414Z,10.60
2018-11-11T19:24:25.808Z,18.97
2018-11-11T19:26:56.414Z,13.43
2018-11-11T19:29:29.919Z,13.07
2018-11-11T19:32:01.876Z,11.17
2018-11-11T19:34:32.731Z,11.07
2018-11-11T19:37:04.517Z,9.73
2018-11-11T19:39:36.170Z,9.67
2018-11-11T19:42:09.387Z,10.70
2018-11-11T19:44:43.115Z,13.47
2018-11-11T19:47:19.689Z,15.47
2018-11-11T19:49:54.139Z,13.77
2018-11-11T19:52:26.741Z,11.73
2018-11-11T19:54:57.806Z,11.23
2018-11-11T19:57:30.704Z,10.00
2018-11-11T20:00:02.881Z,9.27
2018-11-11T20:02:34.892Z,9.80
2018-11-11T20:05:08.260Z,9.40
2018-11-11T20:07:45.431Z,10.10
2018-11-11T20:10:24.944Z,10.03
2018-11-11T20:12:59.395Z,9.83
2018-11-11T20:15:35.064Z,11.90
2018-11-11T20:18:07.456Z,17.37
2018-11-11T20:20:40.772Z,16.37
2018-11-11T20:23:12.022Z,13.03
2018-11-11T20:25:44.165Z,10.40
2018-11-11T20:28:33.796Z,10.73
2018-11-11T20:31:11.954Z,10.13
2018-11-11T20:34:03.446Z,9.83
2018-11-11T20:36:44.938Z,11.63
2018-11-11T20:39:36.428Z,10.07
2018-11-11T20:42:07.680Z,9.33
2018-11-11T20:44:43.230Z,9.80
2018-11-11T20:47:21.130Z,10.57
2018-11-11T20:49:56.841Z,11.17
2018-11-11T20:52:28.366Z,11.43
2018-11-11T20:55:00.890Z,12.53
2018-11-11T20:57:33.853Z,11.70
2018-11-11T21:03:29.015Z,10.90
2018-11-11T21:06:01.080Z,10.27
2018-11-11T21:08:35.813Z,10.30
2018-11-11T21:11:07.427Z,10.43
2018-11-11T21:13:40.048Z,11.27
2018-11-11T21:16:11.046Z,10.37
2018-11-11T21:18:41.917Z,10.63
2018-11-11T21:21:15.054Z,11.33
2018-11-11T21:23:45.863Z,11.13
2018-11-11T21:26:31.553Z,10.60
2018-11-11T21:29:02.183Z,11.23
2018-11-11T21:31:34.045Z,10.50
2018-11-11T21:34:06.966Z,10.93
2018-11-11T21:36:37.935Z,10.97
2018-11-11T21:39:11.731Z,11.40
2018-11-11T21:41:42.881Z,10.63
2018-11-11T21:44:13.956Z,10.57
2018-11-11T21:46:52.981Z,10.60
2018-11-11T21:49:25.132Z,11.33
2018-11-11T21:51:57.678Z,10.50
2018-11-11T21:54:30.363Z,10.10
2018-11-11T21:57:02.143Z,10.37
2018-11-11T21:59:34.621Z,10.60
2018-11-11T22:02:06.023Z,12.63
2018-11-11T22:04:37.647Z,13.53
2018-11-11T22:07:08.163Z,11.97
2018-11-11T22:09:45.805Z,11.67
2018-11-11T22:12:17.287Z,10.77
2018-11-11T22:14:53.126Z,10.63
2018-11-11T22:17:44.291Z,10.63
2018-11-11T22:20:15.248Z,11.07
2018-11-11T22:22:48.085Z,10.73
2018-11-11T22:25:21.426Z,10.60
2018-11-11T22:27:51.350Z,10.07
2018-11-11T22:30:25.185Z,10.20
2018-11-11T22:32:57.091Z,10.17
2018-11-11T22:35:26.956Z,9.93
2018-11-11T22:37:56.869Z,9.87
2018-11-11T22:40:27.782Z,10.83
2018-11-11T22:42:58.240Z,11.73
2018-11-11T22:45:28.352Z,11.27
2018-11-11T22:47:58.183Z,10.63
2018-11-11T22:50:29.517Z,10.40
2018-11-11T22:53:00.508Z,10.40
2018-11-11T22:55:32.105Z,10.03
2018-11-11T22:58:05.394Z,10.37
2018-11-11T23:00:34.990Z,10.23
2018-11-11T23:03:04.918Z,9.70
2018-11-11T23:05:36.684Z,10.37
2018-11-11T23:08:08.562Z,10.23
2018-11-11T23:10:40.082Z,9.90
2018-11-11T23:13:12.772Z,10.53
2018-11-11T23:15:46.679Z,10.47
2018-11-11T23:18:17.754Z,9.70
2018-11-11T23:20:59.509Z,9.87
2018-11-11T23:23:31.033Z,10.07
2018-11-11T23:26:03.709Z,10.47
2018-11-11T23:28:34.868Z,9.63
2018-11-11T23:31:05.848Z,9.90
2018-11-11T23:33:36.677Z,10.20
2018-11-11T23:36:08.558Z,10.47
2018-11-11T23:38:39.524Z,9.07
2018-11-11T23:41:12.097Z,9.50
2018-11-11T23:43:46.646Z,9.30
2018-11-11T23:46:17.009Z,9.40
2018-11-11T23:48:47.660Z,8.80
2018-11-11T23:51:17.436Z,9.50
2018-11-11T23:53:48.177Z,9.33
2018-11-11T23:56:21.630Z,9.50
2018-11-11T23:58:52.144Z,9.40
